Time;durP1;ratioP1;P1;durP2;ratioP2;P2;SDS_P1;SDS_P2;PMS_P1;PMS_P2;Temp;Humidity;BMP_temperature;BMP_pressure;BME280_temperature;BME280_humidity;BME280_pressure;Samples;Min_cycle;Max_cycle;Signal;HPM_P1;HPM_P2
2023/02/10 00:01:06;;;;;;;15.90;14.20;;;;;;;19.92;38.12;99179.00;4928239;29;20204;-90
2023/02/10 00:03:33;;;;;;;16.77;15.00;;;;;;;20.27;38.21;99233.91;4918779;28;20216;-90
2023/02/10 00:06:00;;;;;;;16.80;14.87;;;;;;;19.64;38.03;99122.00;4949027;28;20228;-89
2023/02/10 00:08:26;;;;;;;15.53;13.93;;;;;;;20.15;38.21;99207.63;4940938;28;20661;-90
2023/02/10 00:11:00;;;;;;;15.40;13.80;;;;;;;19.90;38.10;99166.97;4912441;29;20208;-89
2023/02/10 00:13:27;;;;;;;15.93;14.23;;;;;;;19.95;37.93;99175.75;4939547;28;20205;-90
2023/02/10 00:15:53;;;;;;;15.27;13.67;;;;;;;20.13;37.65;99211.78;4912181;29;20216;-89
2023/02/10 00:18:20;;;;;;;16.40;14.70;;;;;;;19.09;38.22;99032.63;4941508;28;20601;-89
2023/02/10 00:20:47;;;;;;;16.27;14.07;;;;;;;19.74;38.30;99142.16;4950545;28;20648;-89
2023/02/10 00:23:13;;;;;;;16.73;14.90;;;;;;;19.89;37.95;99175.38;4928162;29;20200;-90
2023/02/10 00:25:40;;;;;;;16.27;14.57;;;;;;;19.89;37.87;99170.28;4959025;28;20772;-89
2023/02/10 00:28:06;;;;;;;16.20;14.50;;;;;;;20.08;37.90;99211.47;4941945;29;20238;-90
2023/02/10 00:30:33;;;;;;;15.83;14.23;;;;;;;20.05;38.02;99212.94;4956592;28;20700;-90
2023/02/10 00:33:00;;;;;;;15.13;13.63;;;;;;;19.78;38.15;99168.75;4927460;29;20215;-90
2023/02/10 00:35:27;;;;;;;15.57;13.97;;;;;;;19.96;38.06;99197.97;4935076;28;20223;-90
2023/02/10 00:37:53;;;;;;;15.87;14.17;;;;;;;19.87;38.17;99182.94;4920972;29;20224;-89
2023/02/10 00:40:20;;;;;;;16.30;14.60;;;;;;;19.91;38.36;99200.22;4911424;28;20212;-90
2023/02/10 00:42:46;;;;;;;15.70;14.10;;;;;;;20.06;38.12;99230.00;4927404;29;20209;-90
2023/02/10 00:45:13;;;;;;;15.33;13.70;;;;;;;19.90;37.62;99207.78;4931172;29;20205;-90
2023/02/10 00:47:39;;;;;;;15.80;14.10;;;;;;;19.93;38.08;99213.94;4948358;28;20259;-89
2023/02/10 00:50:06;;;;;;;16.30;14.20;;;;;;;19.90;37.89;99206.09;4934895;29;20291;-89
2023/02/10 00:52:33;;;;;;;15.40;13.77;;;;;;;20.16;37.95;99242.63;4912177;28;20643;-88
2023/02/10 00:54:59;;;;;;;15.77;14.17;;;;;;;20.04;37.85;99232.47;4915555;29;20205;-88
2023/02/10 00:57:26;;;;;;;15.60;13.90;;;;;;;19.71;37.88;99170.03;4923868;28;20760;-89
2023/02/10 00:59:52;;;;;;;15.83;13.87;;;;;;;19.67;37.93;99167.19;4933733;29;20216;-89
2023/02/10 01:02:19;;;;;;;15.53;13.90;;;;;;;19.90;38.06;99203.56;4932437;28;20296;-90
2023/02/10 01:04:45;;;;;;;14.80;13.30;;;;;;;20.11;38.29;99246.50;4953445;28;20295;-89
2023/02/10 01:07:12;;;;;;;15.20;13.43;;;;;;;19.66;37.69;99168.00;4943070;29;20772;-88
2023/02/10 01:09:39;;;;;;;15.10;13.50;;;;;;;20.03;38.10;99233.28;4934166;28;20240;-90
2023/02/10 01:12:06;;;;;;;13.87;12.47;;;;;;;19.81;38.03;99195.31;4934254;29;20208;-88
2023/02/10 01:14:32;;;;;;;14.77;13.17;;;;;;;20.24;37.92;99272.03;4950264;28;20225;-89
2023/02/10 01:16:59;;;;;;;14.70;13.10;;;;;;;19.74;38.21;99185.53;4905297;29;20718;-90
2023/02/10 01:19:25;;;;;;;15.57;13.97;;;;;;;20.19;37.96;99266.63;4946236;28;20219;-90
2023/02/10 01:21:52;;;;;;;15.53;13.90;;;;;;;20.21;37.65;99259.06;4910749;29;20291;-90
2023/02/10 01:24:19;;;;;;;16.60;13.90;;;;;;;20.12;37.21;99236.41;4938664;28;20220;-89
2023/02/10 01:26:45;;;;;;;14.87;13.37;;;;;;;20.07;37.56;99225.00;4939138;29;20252;-90
2023/02/10 01:29:12;;;;;;;15.03;13.53;;;;;;;19.98;37.55;99217.69;4938163;29;20572;-90
2023/02/10 01:31:38;;;;;;;15.23;13.63;;;;;;;19.79;37.80;99184.16;4956342;28;20217;-90
2023/02/10 01:34:05;;;;;;;14.93;13.40;;;;;;;20.10;37.82;99237.97;4926775;29;20302;-90
2023/02/10 01:36:32;;;;;;;14.90;13.30;;;;;;;19.68;37.57;99163.84;4908163;28;20229;-88
2023/02/10 01:38:58;;;;;;;15.33;13.73;;;;;;;19.77;37.62;99178.06;4911217;29;20212;-90
2023/02/10 01:41:25;;;;;;;14.70;13.20;;;;;;;19.87;37.80;99197.41;4937321;28;20214;-90
2023/02/10 01:43:59;;;;;;;14.30;12.63;;;;;;;20.00;37.68;99220.31;4941077;29;20303;-90
2023/02/10 01:46:32;;;;;;;14.50;13.00;;;;;;;20.04;37.78;99223.97;4949270;28;20227;-90
2023/02/10 01:49:02;;;;;;;15.63;13.97;;;;;;;19.97;37.78;99217.56;4908586;29;20679;-90
2023/02/10 01:51:40;;;;;;;14.33;12.87;;;;;;;20.05;37.71;99233.38;4911082;28;20295;-89
2023/02/10 01:54:08;;;;;;;14.67;12.87;;;;;;;19.58;37.70;99146.22;4927528;29;20211;-89
2023/02/10 01:56:35;;;;;;;14.17;12.77;;;;;;;19.85;37.65;99204.97;4939087;28;20256;-90
2023/02/10 01:59:01;;;;;;;15.57;13.93;;;;;;;19.49;37.43;99128.69;4926528;29;20212;-89
2023/02/10 02:01:28;;;;;;;14.37;12.97;;;;;;;19.71;37.88;99171.69;4909386;28;20307;-90
2023/02/10 02:03:54;;;;;;;14.60;13.13;;;;;;;19.99;37.46;99219.44;4911112;29;20200;-89
2023/02/10 02:06:22;;;;;;;14.73;13.23;;;;;;;19.96;37.49;99210.72;4940887;28;20632;-89
2023/02/10 02:08:49;;;;;;;13.57;12.20;;;;;;;19.92;37.56;99213.84;4939493;29;20557;-89
2023/02/10 02:11:20;;;;;;;14.60;13.03;;;;;;;20.28;37.51;99269.75;4907346;29;20726;-90
2023/02/10 02:13:55;;;;;;;14.63;13.13;;;;;;;20.29;37.84;99274.09;4942274;29;20219;-89
2023/02/10 02:16:25;;;;;;;13.73;12.33;;;;;;;20.29;37.76;99273.22;4940902;28;20282;-90
2023/02/10 02:19:24;;;;;;;14.30;12.80;;;;;;;20.29;37.77;99270.66;4939172;29;20264;-90
2023/02/10 02:22:28;;;;;;;14.37;12.87;;;;;;;20.29;37.60;99271.53;4928719;29;20231;-89
2023/02/10 02:25:16;;;;;;;14.20;12.80;;;;;;;19.99;37.51;99221.97;4941414;29;20264;-89
2023/02/10 02:27:45;;;;;;;14.87;13.33;;;;;;;20.29;37.45;99273.22;4956614;28;20610;-90
2023/02/10 02:30:35;;;;;;;13.27;11.87;;;;;;;20.29;37.51;99275.75;4957856;28;20271;-90
2023/02/10 02:33:08;;;;;;;13.87;12.43;;;;;;;19.93;37.61;99213.09;4939795;29;20260;-90
2023/02/10 02:35:39;;;;;;;14.60;13.10;;;;;;;20.04;37.53;99223.97;4928662;28;20678;-90
2023/02/10 02:38:05;;;;;;;13.53;12.13;;;;;;;20.28;37.50;99263.78;4939408;29;20272;-90
2023/02/10 02:40:32;;;;;;;13.97;12.57;;;;;;;19.90;37.40;99215.44;4912066;28;20206;-90
2023/02/10 02:42:58;;;;;;;13.90;12.50;;;;;;;19.58;37.75;99143.66;4940588;29;20295;-89
2023/02/10 02:45:35;;;;;;;14.87;13.37;;;;;;;20.29;37.48;99270.66;4955672;28;20213;-89
2023/02/10 02:48:49;;;;;;;13.80;12.40;;;;;;;20.28;37.39;99285.09;4914479;29;20247;-90
2023/02/10 02:51:25;;;;;;;14.13;12.57;;;;;;;20.13;37.56;99250.09;4883373;29;20226;-89
2023/02/10 02:54:24;;;;;;;14.10;12.70;;;;;;;19.92;37.65;99214.75;4914896;29;20291;-90
2023/02/10 02:57:18;;;;;;;14.50;13.03;;;;;;;20.28;37.62;99282.53;4934943;29;20225;-89
2023/02/10 03:00:08;;;;;;;14.13;12.70;;;;;;;20.27;37.44;99285.88;4929671;28;20209;-89
2023/02/10 03:02:35;;;;;;;14.23;12.73;;;;;;;20.08;38.12;99254.88;4943132;29;20290;-91
2023/02/10 03:05:02;;;;;;;13.97;12.47;;;;;;;19.57;37.73;99172.53;4933598;29;20233;-89
2023/02/10 03:07:29;;;;;;;13.57;12.17;;;;;;;20.14;37.61;99265.50;4928408;28;20224;-89
2023/02/10 03:09:56;;;;;;;14.47;13.03;;;;;;;19.75;37.41;99209.38;4957146;28;20305;-89
2023/02/10 03:12:22;;;;;;;14.17;12.67;;;;;;;19.83;37.30;99216.72;4928628;29;20298;-89
2023/02/10 03:14:49;;;;;;;13.80;12.40;;;;;;;19.79;37.15;99214.78;4902535;29;20236;-90
2023/02/10 03:17:15;;;;;;;14.30;12.80;;;;;;;20.28;37.38;99297.84;4906036;29;20259;-89
2023/02/10 03:19:42;;;;;;;13.53;12.13;;;;;;;19.84;37.33;99223.56;4944762;28;20204;-89
2023/02/10 03:22:09;;;;;;;14.30;12.80;;;;;;;19.62;37.37;99184.75;4924818;29;20211;-89
2023/02/10 03:24:35;;;;;;;14.63;12.90;;;;;;;20.22;37.34;99294.91;4953142;28;20264;-89
2023/02/10 03:27:05;;;;;;;14.30;12.83;;;;;;;19.87;37.33;99233.13;4936260;29;20311;-89
2023/02/10 03:29:31;;;;;;;14.37;12.87;;;;;;;19.98;37.12;99252.50;4939880;28;20209;-90
2023/02/10 03:32:01;;;;;;;13.83;12.43;;;;;;;20.28;37.22;99309.75;4924533;29;20213;-90
2023/02/10 03:34:28;;;;;;;13.17;11.77;;;;;;;20.11;37.31;99274.59;4941686;28;20221;-89
2023/02/10 03:36:54;;;;;;;14.40;12.90;;;;;;;19.99;37.44;99256.84;4961421;28;20224;-89
2023/02/10 03:39:21;;;;;;;13.83;12.43;;;;;;;19.53;37.31;99185.84;4949183;28;20240;-90
2023/02/10 03:41:47;;;;;;;14.43;12.93;;;;;;;19.82;37.34;99232.81;4935247;28;20268;-91
2023/02/10 03:44:14;;;;;;;13.50;12.10;;;;;;;20.23;37.41;99301.81;4940976;29;20612;-90
2023/02/10 03:46:41;;;;;;;13.57;12.17;;;;;;;20.17;37.27;99296.31;4958126;28;20224;-89
2023/02/10 03:49:07;;;;;;;13.37;12.07;;;;;;;20.07;37.42;99287.97;4955325;28;20208;-90
2023/02/10 03:51:34;;;;;;;12.90;11.60;;;;;;;19.76;37.20;99237.53;4937387;28;20201;-89
2023/02/10 03:54:00;;;;;;;12.60;11.40;;;;;;;20.26;37.27;99324.09;4925307;29;20205;-90
2023/02/10 03:56:27;;;;;;;14.97;13.37;;;;;;;20.09;37.40;99296.56;4949709;28;20233;-89
2023/02/10 03:58:54;;;;;;;13.57;12.17;;;;;;;19.78;37.16;99256.38;4928935;29;20208;-91
2023/02/10 04:01:20;;;;;;;14.43;12.93;;;;;;;19.91;37.57;99274.22;4939614;29;20238;-90
2023/02/10 04:03:47;;;;;;;14.53;12.67;;;;;;;20.05;37.39;99300.63;4943134;28;20236;-89
2023/02/10 04:06:14;;;;;;;13.03;11.30;;;;;;;20.06;37.67;99297.28;4943319;29;20266;-89
2023/02/10 04:08:40;;;;;;;12.97;11.67;;;;;;;19.79;37.18;99254.69;4939590;28;20698;-89
2023/02/10 04:11:09;;;;;;;13.27;11.97;;;;;;;19.60;37.56;99227.13;4940522;29;20209;-90
2023/02/10 04:13:36;;;;;;;13.30;11.90;;;;;;;20.00;37.27;99291.78;4907597;28;20208;-89
2023/02/10 04:16:07;;;;;;;13.87;12.47;;;;;;;19.30;37.27;99178.44;4936736;29;20225;-90
2023/02/10 04:18:34;;;;;;;13.57;12.17;;;;;;;19.93;37.23;99282.84;4912049;28;20209;-89
2023/02/10 04:21:02;;;;;;;14.10;12.60;;;;;;;20.20;37.48;99337.34;4956354;28;20597;-89
2023/02/10 04:23:29;;;;;;;14.10;12.70;;;;;;;19.05;37.27;99149.53;4911144;28;20212;-90
2023/02/10 04:25:56;;;;;;;14.10;11.93;;;;;;;19.58;37.28;99244.03;4908301;29;20228;-90
2023/02/10 04:28:22;;;;;;;13.57;12.10;;;;;;;19.71;37.18;99249.13;4941273;29;20224;-89
2023/02/10 04:30:53;;;;;;;14.43;12.83;;;;;;;20.21;37.22;99354.44;4940046;28;20296;-89
2023/02/10 04:33:20;;;;;;;14.40;12.87;;;;;;;19.66;37.09;99247.06;4910360;29;20211;-89
2023/02/10 04:35:47;;;;;;;12.93;11.63;;;;;;;19.77;37.22;99262.25;4939984;28;20212;-89
2023/02/10 04:38:15;;;;;;;13.53;12.10;;;;;;;19.29;37.16;99174.09;4910258;29;20658;-90
2023/02/10 04:40:42;;;;;;;13.47;12.03;;;;;;;20.13;37.61;99319.00;4911663;28;20215;-89
2023/02/10 04:43:12;;;;;;;13.10;11.80;;;;;;;19.99;37.21;99287.47;4958364;28;20240;-89
2023/02/10 04:45:39;;;;;;;13.90;12.43;;;;;;;19.99;37.19;99290.88;4925281;28;20239;-89
2023/02/10 04:48:06;;;;;;;14.00;12.60;;;;;;;19.94;37.25;99289.75;4939815;29;20221;-89
2023/02/10 04:50:32;;;;;;;13.70;12.27;;;;;;;20.04;37.22;99303.06;4939523;29;20707;-89
2023/02/10 04:52:59;;;;;;;13.67;12.20;;;;;;;19.83;37.31;99272.84;4959386;28;20204;-90
2023/02/10 04:55:26;;;;;;;14.70;13.10;;;;;;;20.13;37.23;99324.13;4942979;29;20657;-89
2023/02/10 04:57:52;;;;;;;14.10;12.60;;;;;;;19.73;37.13;99257.75;4939287;28;20221;-89
2023/02/10 05:00:19;;;;;;;13.33;11.80;;;;;;;19.94;37.25;99297.41;4925648;29;20216;-90
2023/02/10 05:02:45;;;;;;;13.70;12.30;;;;;;;20.02;37.32;99306.41;4908001;28;20204;-90
2023/02/10 05:05:12;;;;;;;13.53;12.13;;;;;;;20.08;37.17;99318.69;4922342;29;20213;-90
2023/02/10 05:07:39;;;;;;;13.63;12.23;;;;;;;19.93;37.22;99299.84;4954701;28;20286;-89
2023/02/10 05:10:05;;;;;;;13.57;12.17;;;;;;;19.99;37.09;99310.44;4921653;29;20292;-90
2023/02/10 05:12:32;;;;;;;13.43;12.10;;;;;;;20.06;37.08;99324.44;4905449;28;20211;-90
2023/02/10 05:14:59;;;;;;;14.13;12.63;;;;;;;19.98;37.05;99313.75;4910913;29;20231;-89
2023/02/10 05:17:25;;;;;;;13.80;12.40;;;;;;;19.96;36.98;99306.00;4923056;29;20224;-90
2023/02/10 05:19:52;;;;;;;14.33;12.83;;;;;;;19.78;37.59;99276.78;4953510;28;20599;-90
2023/02/10 05:22:18;;;;;;;13.53;12.13;;;;;;;19.72;37.30;99266.19;4927684;29;20647;-89
2023/02/10 05:24:45;;;;;;;14.43;12.80;;;;;;;19.64;37.15;99254.63;4935818;28;20204;-89
2023/02/10 05:27:11;;;;;;;13.80;12.13;;;;;;;19.90;37.31;99294.56;4939492;29;20268;-90
2023/02/10 05:29:38;;;;;;;14.13;12.73;;;;;;;20.02;37.19;99318.28;4922129;29;20205;-89
2023/02/10 05:32:04;;;;;;;14.03;12.63;;;;;;;19.64;37.34;99251.19;4909835;29;20204;-90
2023/02/10 05:34:31;;;;;;;14.30;12.77;;;;;;;20.05;37.18;99315.03;4901206;29;20284;-89
2023/02/10 05:36:58;;;;;;;13.83;12.43;;;;;;;19.34;37.08;99199.13;4953848;28;20346;-92
2023/02/10 05:39:24;;;;;;;14.00;12.57;;;;;;;19.51;37.45;99228.25;4957516;28;20208;-90
2023/02/10 05:41:52;;;;;;;14.13;12.63;;;;;;;20.13;37.35;99350.50;4924813;28;20590;-91
2023/02/10 05:44:18;;;;;;;16.13;14.43;;;;;;;19.65;37.13;99258.94;4940721;29;20210;-91
2023/02/10 05:46:45;;;;;;;21.60;19.30;;;;;;;20.22;36.07;99361.28;4937276;28;20317;-91
2023/02/10 05:49:11;;;;;;;20.77;18.43;;;;;;;19.82;35.46;99296.63;4938411;29;20231;-94
2023/02/10 05:51:38;;;;;;;19.97;17.77;;;;;;;19.87;35.65;99309.66;4955232;28;20201;-93
2023/02/10 05:54:05;;;;;;;21.20;18.90;;;;;;;19.38;35.96;99230.75;4926713;28;20196;-92
2023/02/10 05:56:32;;;;;;;28.43;25.43;;;;;;;19.25;34.50;99201.03;4968116;29;20319;-92
2023/02/10 05:58:58;;;;;;;32.90;28.83;;;;;;;19.92;32.69;99326.13;4939653;29;20225;-89
2023/02/10 06:01:25;;;;;;;36.27;32.00;;;;;;;19.69;31.82;99298.28;4960490;29;20212;-91
2023/02/10 06:03:51;;;;;;;36.83;30.20;;;;;;;19.72;30.70;99313.78;4940788;29;20287;-89
2023/02/10 06:06:18;;;;;;;34.30;28.70;;;;;;;19.84;31.07;99342.63;4940350;29;20251;-90
2023/02/10 06:08:45;;;;;;;34.33;28.83;;;;;;;19.59;32.01;99301.00;4910666;29;20251;-89
2023/02/10 06:11:11;;;;;;;31.53;28.10;;;;;;;19.76;32.22;99348.91;4946549;29;20311;-89
2023/02/10 06:13:38;;;;;;;32.37;27.20;;;;;;;19.34;32.23;99274.69;4925416;29;20248;-87
2023/02/10 06:16:05;;;;;;;36.20;28.37;;;;;;;19.85;32.96;99375.91;4946173;29;20216;-90
2023/02/10 06:18:31;;;;;;;30.70;27.33;;;;;;;19.67;33.23;99340.66;4915441;29;20292;-88
2023/02/10 06:20:58;;;;;;;31.37;26.80;;;;;;;20.15;32.72;99427.19;4969082;28;20184;-90
2023/02/10 06:23:24;;;;;;;31.60;26.60;;;;;;;19.95;32.95;99397.78;4938008;29;20228;-92
2023/02/10 06:25:54;;;;;;;31.43;25.77;;;;;;;19.64;33.21;99336.25;4945329;29;20231;-91
2023/02/10 06:28:22;;;;;;;30.33;26.17;;;;;;;19.53;33.61;99337.19;4939416;29;20227;-91
2023/02/10 06:30:48;;;;;;;27.70;24.13;;;;;;;19.44;33.79;99307.66;4959597;29;20188;-91
2023/02/10 06:33:17;;;;;;;31.67;25.17;;;;;;;18.55;33.42;99152.97;4919820;29;20192;-93
2023/02/10 06:35:46;;;;;;;33.80;23.90;;;;;;;17.63;33.68;99017.81;4955290;28;20215;-92
2023/02/10 06:38:13;;;;;;;27.23;23.20;;;;;;;17.78;34.02;99016.31;4948419;29;20211;-90
2023/02/10 06:40:40;;;;;;;29.17;22.87;;;;;;;18.50;34.08;99144.19;4946051;29;20640;-88
2023/02/10 06:43:07;;;;;;;31.87;22.83;;;;;;;19.90;34.21;99386.41;4913414;29;20197;-90
2023/02/10 06:45:34;;;;;;;35.97;23.20;;;;;;;19.78;34.72;99366.06;4915657;29;20396;-90
2023/02/10 06:48:02;;;;;;;30.33;21.60;;;;;;;20.00;34.91;99427.06;4942556;29;20272;-90
2023/02/10 06:50:28;;;;;;;24.50;20.37;;;;;;;18.69;34.93;99196.44;4914520;29;20201;-92
2023/02/10 06:52:55;;;;;;;27.73;20.90;;;;;;;19.83;34.94;99391.88;4937800;29;20208;-89
2023/02/10 06:55:21;;;;;;;27.57;21.33;;;;;;;19.72;34.95;99375.00;4929810;29;20588;-89
2023/02/10 06:57:48;;;;;;;27.33;23.07;;;;;;;20.04;35.05;99441.78;4930786;29;20949;-90
2023/02/10 07:00:15;;;;;;;40.77;30.37;;;;;;;20.15;32.74;99447.59;4946107;29;20224;-90
2023/02/10 07:02:44;;;;;;;36.07;28.13;;;;;;;19.67;32.34;99368.72;4945444;29;20204;-90
2023/02/10 07:05:15;;;;;;;31.43;27.33;;;;;;;20.15;32.57;99445.06;4943961;29;20197;-90
2023/02/10 07:07:42;;;;;;;30.60;25.97;;;;;;;19.98;33.03;99420.09;4956314;28;20236;-90
2023/02/10 07:10:08;;;;;;;31.13;25.57;;;;;;;20.17;33.19;99456.25;4917516;29;20236;-90
2023/02/10 07:12:35;;;;;;;28.90;25.10;;;;;;;19.44;33.66;99326.41;4939605;29;20678;-91
2023/02/10 07:15:02;;;;;;;29.83;23.60;;;;;;;20.21;33.90;99460.78;4909923;28;20272;-89
2023/02/10 07:17:28;;;;;;;31.03;23.57;;;;;;;20.04;34.28;99440.91;4941659;29;20264;-91
2023/02/10 07:19:55;;;;;;;32.33;23.53;;;;;;;20.00;34.91;99429.59;4908374;28;20263;-91
2023/02/10 07:22:22;;;;;;;27.13;22.10;;;;;;;19.41;35.08;99338.06;4941358;29;20201;-90
2023/02/10 07:24:48;;;;;;;24.37;19.83;;;;;;;19.30;35.26;99313.53;4939879;28;20212;-90
2023/02/10 07:27:15;;;;;;;21.60;18.90;;;;;;;19.91;35.83;99423.91;4938010;29;20228;-90
2023/02/10 07:29:42;;;;;;;24.13;19.53;;;;;;;19.88;36.12;99421.16;4925793;28;20524;-89
2023/02/10 07:32:08;;;;;;;21.80;17.40;;;;;;;19.83;36.76;99414.84;4935926;29;20694;-91
2023/02/10 07:34:35;;;;;;;19.17;17.07;;;;;;;20.05;36.46;99456.31;4926994;29;20223;-91
2023/02/10 07:37:01;;;;;;;20.80;16.90;;;;;;;20.04;36.27;99471.53;4925986;28;20223;-90
2023/02/10 07:39:28;;;;;;;19.73;16.20;;;;;;;19.98;36.71;99439.72;4940321;29;20204;-90
2023/02/10 07:41:55;;;;;;;20.03;15.57;;;;;;;19.89;36.81;99430.56;4942148;28;20235;-91
2023/02/10 07:44:21;;;;;;;15.27;13.67;;;;;;;20.21;37.05;99492.31;4940819;29;20275;-90
2023/02/10 07:46:48;;;;;;;18.57;15.77;;;;;;;19.89;37.16;99444.22;4940923;28;20238;-90
2023/02/10 07:49:15;;;;;;;15.97;14.03;;;;;;;19.95;36.87;99453.94;4925747;29;20228;-89
2023/02/10 07:51:42;;;;;;;17.47;14.50;;;;;;;19.86;36.99;99438.00;4908763;29;20298;-90
2023/02/10 07:54:09;;;;;;;16.93;14.40;;;;;;;19.79;37.25;99425.66;4953632;28;20232;-90
2023/02/10 07:56:35;;;;;;;16.47;13.93;;;;;;;19.95;37.13;99443.72;4921630;29;20735;-90
2023/02/10 07:59:02;;;;;;;15.33;13.47;;;;;;;20.09;37.36;99475.25;4923786;28;20196;-90
2023/02/10 08:01:28;;;;;;;16.50;14.00;;;;;;;19.75;37.32;99413.47;4937767;29;20284;-88
2023/02/10 08:03:57;;;;;;;16.20;14.47;;;;;;;19.94;37.42;99447.97;4955092;28;20745;-89
2023/02/10 08:06:24;;;;;;;13.50;12.03;;;;;;;20.30;37.58;99497.13;4950810;28;20246;-90
2023/02/10 08:08:50;;;;;;;15.80;14.17;;;;;;;20.12;37.18;99465.25;4946172;28;20236;-91
2023/02/10 08:11:17;;;;;;;15.77;13.23;;;;;;;20.21;37.21;99484.66;4908915;28;20243;-91
2023/02/10 08:13:44;;;;;;;15.83;13.53;;;;;;;19.51;37.50;99360.84;4955388;28;20267;-90
2023/02/10 08:16:11;;;;;;;14.63;13.00;;;;;;;19.40;37.24;99336.28;4941143;28;20246;-90
2023/02/10 08:18:38;;;;;;;14.97;13.10;;;;;;;19.86;37.51;99426.16;4951006;28;20212;-91
2023/02/10 08:21:04;;;;;;;14.53;13.03;;;;;;;20.17;37.72;99480.13;4940915;29;20270;-91
2023/02/10 08:23:31;;;;;;;14.20;12.70;;;;;;;19.66;37.91;99390.78;4944131;29;20283;-90
2023/02/10 08:25:58;;;;;;;13.57;12.23;;;;;;;19.74;37.63;99412.59;4936081;28;20225;-90
2023/02/10 08:28:24;;;;;;;14.97;12.87;;;;;;;19.55;38.00;99375.56;4941512;29;20238;-90
2023/02/10 08:30:51;;;;;;;17.57;12.87;;;;;;;19.67;38.18;99404.44;4929936;28;20296;-90
2023/02/10 08:33:18;;;;;;;15.00;12.93;;;;;;;20.29;37.72;99505.56;4941996;29;20660;-90
2023/02/10 08:35:44;;;;;;;13.60;11.83;;;;;;;19.94;38.09;99465.81;4941022;28;20216;-90
2023/02/10 08:38:11;;;;;;;15.43;12.37;;;;;;;19.93;38.03;99445.31;4939158;29;20201;-90
2023/02/10 08:40:37;;;;;;;13.67;12.27;;;;;;;19.81;38.41;99432.59;4925069;29;20268;-90
2023/02/10 08:43:04;;;;;;;13.77;12.37;;;;;;;19.94;38.21;99468.38;4909466;29;20232;-89
2023/02/10 08:45:31;;;;;;;13.47;12.03;;;;;;;19.83;38.33;99440.38;4937487;29;20205;-92
2023/02/10 08:47:57;;;;;;;14.87;12.67;;;;;;;19.94;38.42;99462.38;4937892;28;20595;-91
2023/02/10 08:50:24;;;;;;;13.53;12.00;;;;;;;19.58;38.19;99397.06;4940937;29;20212;-89
2023/02/10 08:52:50;;;;;;;14.60;12.30;;;;;;;19.88;38.47;99452.66;4954346;28;20212;-91
2023/02/10 08:55:17;;;;;;;12.57;11.27;;;;;;;19.92;38.39;99462.28;4940625;29;20212;-90
2023/02/10 08:57:43;;;;;;;13.47;11.77;;;;;;;20.01;38.57;99479.84;4940587;28;20220;-91
2023/02/10 09:00:10;;;;;;;14.87;11.03;;;;;;;19.44;38.56;99381.59;4951326;28;20230;-91
2023/02/10 09:02:37;;;;;;;12.83;11.20;;;;;;;19.99;38.75;99478.88;4942654;29;20243;-89
2023/02/10 09:05:04;;;;;;;13.50;11.90;;;;;;;20.09;38.36;99491.47;4938255;28;20367;-91
2023/02/10 09:07:36;;;;;;;12.07;10.80;;;;;;;19.88;38.44;99472.19;4940463;29;20276;-91
2023/02/10 09:10:03;;;;;;;13.83;11.87;;;;;;;19.79;38.36;99459.72;4906105;28;20224;-91
2023/02/10 09:12:30;;;;;;;13.67;11.40;;;;;;;19.69;38.65;99430.94;4908695;29;20222;-91
2023/02/10 09:14:56;;;;;;;12.43;10.77;;;;;;;19.66;38.49;99441.78;4921545;28;20212;-89
2023/02/10 09:17:23;;;;;;;12.57;10.97;;;;;;;19.60;38.58;99420.13;4910949;29;20665;-89
2023/02/10 09:19:49;;;;;;;14.23;10.87;;;;;;;19.80;38.50;99450.38;4939221;28;20291;-91
2023/02/10 09:22:17;;;;;;;12.20;11.00;;;;;;;19.86;38.56;99460.97;4955188;28;20218;-90
2023/02/10 09:24:47;;;;;;;11.77;10.50;;;;;;;20.05;38.43;99497.16;4918254;29;20243;-90
2023/02/10 09:27:15;;;;;;;12.10;10.17;;;;;;;20.23;38.66;99530.69;4940253;29;20287;-92
2023/02/10 09:29:41;;;;;;;12.20;10.90;;;;;;;18.91;38.36;99291.31;4939026;29;20228;-90
2023/02/10 09:32:08;;;;;;;12.87;11.40;;;;;;;19.93;38.75;99475.94;4953708;28;20220;-90
2023/02/10 09:34:35;;;;;;;12.77;11.00;;;;;;;19.84;39.02;99460.88;4940528;29;20505;-89
2023/02/10 09:37:02;;;;;;;12.40;11.10;;;;;;;20.23;38.52;99536.72;4923738;28;20600;-89
2023/02/10 09:39:29;;;;;;;12.40;11.10;;;;;;;19.98;38.59;99497.50;4953174;28;20211;-90
2023/02/10 09:42:19;;;;;;;11.37;10.20;;;;;;;20.29;38.73;99547.31;4924208;28;20654;-90
2023/02/10 09:44:50;;;;;;;10.50;9.40;;;;;;;19.78;38.67;99457.06;4939134;29;20208;-90
2023/02/10 09:47:54;;;;;;;13.03;10.77;;;;;;;20.21;38.62;99532.25;4937146;29;20255;-90
2023/02/10 09:50:29;;;;;;;11.33;10.23;;;;;;;20.30;38.89;99543.06;4941466;28;20665;-92
2023/02/10 09:53:02;;;;;;;12.60;10.70;;;;;;;20.31;38.85;99549.97;4954783;28;20204;-91
2023/02/10 09:55:37;;;;;;;10.77;9.50;;;;;;;20.29;38.87;99544.78;4955866;28;20231;-91
2023/02/10 09:58:22;;;;;;;11.77;10.57;;;;;;;20.29;38.95;99538.75;4955069;28;20204;-90
2023/02/10 10:00:52;;;;;;;11.57;10.47;;;;;;;20.09;38.86;99516.09;4951288;28;20455;-90
2023/02/10 10:03:23;;;;;;;11.67;10.27;;;;;;;19.94;38.85;99483.69;4924516;29;20236;-90
2023/02/10 10:06:07;;;;;;;11.50;10.27;;;;;;;20.28;38.86;99548.09;4909250;28;20295;-92
2023/02/10 10:08:38;;;;;;;11.90;10.70;;;;;;;19.74;38.93;99450.84;4921041;29;20229;-90
2023/02/10 10:11:19;;;;;;;12.20;10.03;;;;;;;20.19;39.03;99524.50;4949480;28;20306;-91
2023/02/10 10:13:45;;;;;;;11.43;9.47;;;;;;;19.67;39.01;99438.47;4924031;29;20228;-90
2023/02/10 10:16:56;;;;;;;12.47;9.97;;;;;;;20.27;38.82;99541.22;4923258;28;20228;-89
2023/02/10 10:19:25;;;;;;;11.73;10.53;;;;;;;20.27;38.96;99536.09;4870288;29;20203;-90
2023/02/10 10:21:58;;;;;;;12.10;10.80;;;;;;;20.27;39.15;99528.44;4925405;28;20211;-90
2023/02/10 10:25:01;;;;;;;11.00;9.90;;;;;;;20.26;39.10;99534.34;4952675;28;20240;-90
2023/02/10 10:27:50;;;;;;;10.07;9.07;;;;;;;20.27;39.03;99532.66;4949464;28;20233;-93
2023/02/10 10:30:18;;;;;;;10.40;9.30;;;;;;;20.02;39.23;99508.03;4955333;28;20263;-91
2023/02/10 10:32:45;;;;;;;10.67;9.67;;;;;;;20.06;39.23;99503.13;4939810;29;20658;-89
2023/02/10 10:35:21;;;;;;;11.20;9.90;;;;;;;19.98;39.12;99484.75;4953727;28;20215;-91
2023/02/10 10:37:48;;;;;;;10.37;8.73;;;;;;;19.71;39.33;99437.91;4904401;29;20236;-92
2023/02/10 10:40:41;;;;;;;10.93;9.37;;;;;;;20.13;39.22;99508.78;4937095;28;20204;-91
2023/02/10 10:43:14;;;;;;;9.97;8.97;;;;;;;20.26;39.26;99529.25;4933237;28;20207;-90
2023/02/10 10:45:46;;;;;;;10.77;9.67;;;;;;;19.60;39.18;99403.13;4918627;29;20201;-91
2023/02/10 10:48:26;;;;;;;10.83;9.70;;;;;;;20.05;39.25;99480.94;4911370;28;20212;-91
2023/02/10 10:50:54;;;;;;;10.23;9.23;;;;;;;20.05;39.48;99486.94;4912805;28;20204;-91
2023/02/10 10:53:46;;;;;;;10.13;9.13;;;;;;;18.72;39.31;99241.59;4908703;29;20243;-91
2023/02/10 10:56:43;;;;;;;9.87;8.87;;;;;;;20.27;39.46;99504.56;4910242;28;20291;-91
2023/02/10 10:59:14;;;;;;;10.60;9.13;;;;;;;20.11;39.44;99473.69;4919965;28;20211;-91
2023/02/10 11:01:43;;;;;;;10.77;9.00;;;;;;;19.92;39.44;99446.06;4957569;28;20267;-91
2023/02/10 11:04:20;;;;;;;9.97;8.97;;;;;;;19.64;39.25;99391.47;4940744;28;20715;-91
2023/02/10 11:06:49;;;;;;;10.43;9.43;;;;;;;19.75;39.37;99406.69;4910876;29;20226;-92
2023/02/10 11:09:21;;;;;;;9.87;8.90;;;;;;;19.71;39.24;99398.72;4938866;28;20232;-91
2023/02/10 11:11:47;;;;;;;10.23;8.43;;;;;;;19.87;39.14;99421.94;4907381;29;20205;-92
2023/02/10 11:14:20;;;;;;;9.50;8.50;;;;;;;19.42;39.46;99334.75;4904713;29;20208;-91
2023/02/10 11:16:52;;;;;;;10.03;9.03;;;;;;;19.83;39.17;99407.19;4907267;29;20225;-89
2023/02/10 11:19:23;;;;;;;10.00;9.00;;;;;;;20.20;39.15;99464.13;4927257;29;20214;-90
2023/02/10 11:21:50;;;;;;;9.80;8.80;;;;;;;19.58;39.49;99357.91;4908382;29;20215;-90
2023/02/10 11:24:28;;;;;;;9.93;8.90;;;;;;;19.90;39.38;99406.84;4939567;29;20212;-90
2023/02/10 11:27:16;;;;;;;9.70;8.70;;;;;;;19.82;39.57;99385.03;4907949;28;20224;-90
2023/02/10 11:29:52;;;;;;;9.70;8.70;;;;;;;19.82;39.41;99383.38;4943161;29;20380;-91